Hlavní strana
METAR-TAF:

METAR-TAF

Letiště :

Chios, Řecko

zeměpisná šířka: 38-20N, zeměpisná délka: 026-08E, výška: 5 m

Aktuální stav počasí

Zpráva byla vytvořena před 47 minutami, v 05:50 UTC
Severoseverovýchodní vítr 18 kt
Teplota 7°C
Vlhkost vzduchu 61%
Tlak 1036 hPa
Viditelnost 10 km a více
Oblačno až skoro zataženo ve výšce 2000 ft

METAR: LGHI 210550Z 02018KT 9999 BKN020 07/00 Q1036

Čas: 08:37 (06:37 UTC)

Předpověď počasí

Zpráva byla vytvořena před 1 hodinou a 37 minutami, v 05:00 UTC
Předpověď platná od 21 v 06 UTC do 21 v 15 UTC
Severní vítr 18 kt s nárazy do 30 kt
Viditelnost 10 km a více
Oblačno až skoro zataženo ve výšce 2000 ft

TAF: LGHI 210500Z 2106/2115 01018G30KT 9999 BKN020

Stav a předpovědi počasí z více než 4 000 letišť (zprávy METAR a TAF).

Červené a žluté tečky na mapě představují dostupné meteorologické stanice.

Když kurzor umístíte na tečku, zobrazí se název stanice.

Pak kliknutím zobrazíte stav a předpověď počasí.

Chcete-li změnit mapu, kliknutím na zelené tlačítko se znaménkem +mapu přiblížíte, kliknutím na zelené tlačítko se znaménkem – mapu oddálíte a kliknutím na zelené šipky přejdete na sousední mapy.


METAR-TAF: